Time;durP1;ratioP1;P1;durP2;ratioP2;P2;SDS_P1;SDS_P2;PMS_P1;PMS_P2;Temp;Humidity;BMP_temperature;BMP_pressure;BME280_temperature;BME280_humidity;BME280_pressure;Samples;Min_cycle;Max_cycle;Signal;HPM_P1;HPM_P2
2022/07/17 00:02:05;;;;;;;8.20;2.08;;;;;;;14.83;62.69;102489.69;4967894;28;20050;-82
2022/07/17 00:04:30;;;;;;;4.25;2.10;;;;;;;14.77;62.96;102481.94;4964808;28;20122;-82
2022/07/17 00:06:55;;;;;;;4.38;2.03;;;;;;;14.64;63.31;102497.66;4966015;28;20105;-82
2022/07/17 00:09:21;;;;;;;6.50;2.45;;;;;;;14.67;63.09;102486.78;4966264;28;20042;-82
2022/07/17 00:11:46;;;;;;;4.28;2.20;;;;;;;14.65;63.21;102486.84;4965267;28;20031;-82
2022/07/17 00:14:12;;;;;;;6.15;2.40;;;;;;;14.62;63.37;102483.44;4962689;28;20027;-82
2022/07/17 00:16:37;;;;;;;4.32;1.95;;;;;;;14.57;63.58;102478.25;4960352;28;20042;-82
2022/07/17 00:19:02;;;;;;;5.82;2.42;;;;;;;14.59;63.56;102488.91;4967050;28;20038;-82
2022/07/17 00:21:28;;;;;;;5.70;2.20;;;;;;;14.54;63.78;102485.53;4966381;28;20408;-82
2022/07/17 00:23:53;;;;;;;6.65;2.17;;;;;;;14.49;63.87;102484.88;4967108;28;20186;-82
2022/07/17 00:26:19;;;;;;;6.72;2.75;;;;;;;14.47;63.98;102492.94;4967621;28;20428;-82
2022/07/17 00:28:44;;;;;;;6.43;2.10;;;;;;;14.40;64.27;102494.13;4967275;28;20035;-82
2022/07/17 00:31:10;;;;;;;4.97;2.20;;;;;;;14.33;64.21;102485.47;4966335;28;20023;-82
2022/07/17 00:33:35;;;;;;;7.15;2.38;;;;;;;14.30;64.92;102493.63;4966634;28;20214;-82
2022/07/17 00:36:00;;;;;;;4.22;2.20;;;;;;;14.25;64.94;102498.28;4962195;28;20038;-83
2022/07/17 00:38:26;;;;;;;6.13;2.10;;;;;;;14.23;65.17;102489.44;4967354;28;20044;-83
2022/07/17 00:40:56;;;;;;;5.65;2.28;;;;;;;14.16;65.07;102488.81;4965890;28;20035;-83
2022/07/17 00:43:22;;;;;;;6.22;2.22;;;;;;;14.13;65.49;102490.75;4967215;28;21707;-83
2022/07/17 00:46:06;;;;;;;5.05;2.40;;;;;;;14.13;64.50;102488.09;4956215;28;20393;-83
2022/07/17 00:48:32;;;;;;;5.97;2.50;;;;;;;14.02;65.63;102479.59;4964032;28;20033;-83
2022/07/17 00:50:57;;;;;;;6.30;2.78;;;;;;;14.02;65.96;102495.66;4966483;28;20026;-83
2022/07/17 00:53:23;;;;;;;6.20;2.80;;;;;;;13.99;65.88;102496.63;4964551;28;20520;-83
2022/07/17 00:55:48;;;;;;;4.72;2.78;;;;;;;13.95;66.03;102495.88;4964022;28;20058;-83
2022/07/17 00:58:20;;;;;;;6.72;2.80;;;;;;;13.90;65.98;102484.47;4964307;28;20039;-83
2022/07/17 01:00:47;;;;;;;6.78;2.63;;;;;;;13.78;66.53;102492.97;4964767;28;20022;-82
2022/07/17 01:03:14;;;;;;;4.30;2.63;;;;;;;13.77;66.91;102491.25;4981514;28;20031;-83
2022/07/17 01:05:40;;;;;;;5.75;2.95;;;;;;;13.73;66.95;102483.41;4972792;28;20027;-83
2022/07/17 01:08:05;;;;;;;5.82;2.47;;;;;;;13.76;66.64;102480.63;4986621;28;20148;-82
2022/07/17 01:10:30;;;;;;;7.90;3.00;;;;;;;13.67;66.78;102473.81;4982981;28;20031;-83
2022/07/17 01:12:56;;;;;;;6.22;2.95;;;;;;;13.69;67.21;102478.16;4982032;28;20080;-83
2022/07/17 01:15:23;;;;;;;6.68;3.20;;;;;;;13.69;67.13;102475.47;4983644;28;20031;-83
2022/07/17 01:17:49;;;;;;;5.72;3.05;;;;;;;13.67;67.43;102476.47;4984227;28;20023;-83
2022/07/17 01:20:14;;;;;;;5.93;3.17;;;;;;;13.63;67.52;102477.53;4977717;28;20090;-83
2022/07/17 01:22:50;;;;;;;5.15;2.90;;;;;;;13.58;66.83;102466.97;4972143;28;20035;-82
2022/07/17 01:25:20;;;;;;;4.65;3.05;;;;;;;13.47;67.72;102471.00;4967402;28;20062;-83
2022/07/17 01:27:45;;;;;;;8.90;3.20;;;;;;;13.52;67.71;102477.91;4968101;28;20041;-83
2022/07/17 01:30:10;;;;;;;7.18;3.42;;;;;;;13.51;67.71;102481.53;4967183;28;20109;-82
2022/07/17 01:32:38;;;;;;;7.00;3.20;;;;;;;13.49;67.97;102475.34;4960260;28;20035;-82
2022/07/17 01:35:05;;;;;;;6.68;3.10;;;;;;;13.42;67.99;102474.72;4965756;28;20441;-82
2022/07/17 01:37:30;;;;;;;9.07;4.18;;;;;;;13.34;68.19;102484.81;4967252;28;20117;-83
2022/07/17 01:39:56;;;;;;;8.30;3.88;;;;;;;13.33;68.40;102483.06;4964873;28;20644;-82
2022/07/17 01:42:22;;;;;;;5.70;3.40;;;;;;;13.10;68.96;102473.16;4964225;28;20035;-83
2022/07/17 01:44:48;;;;;;;9.80;4.00;;;;;;;13.11;69.28;102484.72;4964320;28;20025;-83
2022/07/17 01:47:17;;;;;;;4.88;3.40;;;;;;;13.06;69.31;102470.66;4965942;28;20117;-83
2022/07/17 01:49:47;;;;;;;7.10;3.50;;;;;;;13.13;69.42;102474.88;4964940;28;20437;-83
2022/07/17 01:52:13;;;;;;;8.20;3.83;;;;;;;13.16;69.39;102472.94;4965757;28;20409;-83
2022/07/17 01:54:39;;;;;;;7.03;3.78;;;;;;;13.15;68.99;102465.84;4968468;28;20070;-83
2022/07/17 01:57:04;;;;;;;5.20;3.40;;;;;;;13.19;68.93;102471.97;4969437;28;20086;-83
2022/07/17 01:59:30;;;;;;;8.15;3.60;;;;;;;13.18;69.23;102470.22;4968571;28;20034;-83
2022/07/17 02:01:55;;;;;;;8.35;3.88;;;;;;;13.17;69.11;102479.19;4969532;28;20076;-83
2022/07/17 02:04:20;;;;;;;9.05;4.10;;;;;;;13.17;69.12;102479.19;4968309;28;20547;-83
2022/07/17 02:06:45;;;;;;;7.07;3.75;;;;;;;13.03;69.64;102482.31;4970105;28;20027;-83
2022/07/17 02:09:11;;;;;;;18.17;4.40;;;;;;;12.99;69.89;102480.69;4970563;28;20404;-83
2022/07/17 02:11:36;;;;;;;7.45;4.00;;;;;;;12.97;69.86;102493.25;4968701;28;20130;-83
2022/07/17 02:14:03;;;;;;;9.90;3.90;;;;;;;12.96;69.73;102480.81;4969436;28;20034;-83
2022/07/17 02:16:28;;;;;;;7.65;3.88;;;;;;;12.94;69.91;102486.19;4968878;28;20023;-83
2022/07/17 02:18:53;;;;;;;6.18;3.60;;;;;;;12.90;70.05;102489.91;4969375;28;20030;-83
2022/07/17 02:21:19;;;;;;;9.80;4.30;;;;;;;12.83;70.52;102491.06;4971229;28;20114;-83
2022/07/17 02:23:44;;;;;;;6.78;3.97;;;;;;;12.84;70.42;102491.91;4968465;28;20485;-83
2022/07/17 02:26:10;;;;;;;8.45;4.25;;;;;;;12.81;70.53;102484.88;4969658;28;20031;-83
2022/07/17 02:28:35;;;;;;;6.90;4.03;;;;;;;12.85;70.45;102488.31;4970608;28;20114;-82
2022/07/17 02:31:01;;;;;;;8.63;4.15;;;;;;;12.77;70.40;102483.22;4971706;28;21296;-83
2022/07/17 02:33:26;;;;;;;8.35;4.13;;;;;;;12.80;70.33;102485.81;4966576;28;20735;-83
2022/07/17 02:35:52;;;;;;;8.07;4.50;;;;;;;12.70;71.04;102487.03;4967255;28;20042;-83
2022/07/17 02:38:17;;;;;;;7.22;4.60;;;;;;;12.71;70.82;102492.34;4969984;28;20225;-83
2022/07/17 02:40:42;;;;;;;5.43;4.00;;;;;;;12.70;71.01;102484.34;4969959;28;20369;-82
2022/07/17 02:43:08;;;;;;;7.93;4.32;;;;;;;12.71;71.02;102473.63;4968165;28;20030;-83
2022/07/17 02:45:33;;;;;;;7.75;4.25;;;;;;;12.74;70.95;102483.31;4979410;28;20142;-83
2022/07/17 02:47:59;;;;;;;6.28;4.30;;;;;;;12.74;71.14;102477.09;4962784;28;20392;-82
2022/07/17 02:50:24;;;;;;;9.65;4.32;;;;;;;12.77;70.80;102477.00;4967863;28;20031;-83
2022/07/17 02:52:49;;;;;;;10.57;4.70;;;;;;;12.76;70.76;102476.16;4968757;28;20045;-82
2022/07/17 02:55:16;;;;;;;7.00;4.13;;;;;;;12.71;70.75;102470.09;4969644;28;20061;-83
2022/07/17 02:57:42;;;;;;;8.07;4.28;;;;;;;12.65;70.54;102470.28;4968406;28;20030;-83
2022/07/17 03:00:10;;;;;;;7.93;4.10;;;;;;;12.63;71.06;102477.50;4969078;28;20031;-83
2022/07/17 03:02:36;;;;;;;6.20;4.22;;;;;;;12.59;71.68;102481.19;4965877;28;20027;-83
2022/07/17 03:05:02;;;;;;;4.93;4.43;;;;;;;12.54;71.69;102477.78;4967836;28;20517;-83
2022/07/17 03:07:27;;;;;;;7.03;4.05;;;;;;;12.53;71.67;102471.56;4966530;28;20492;-83
2022/07/17 03:09:53;;;;;;;7.88;4.38;;;;;;;12.55;71.83;102484.88;4966708;28;20041;-83
2022/07/17 03:12:18;;;;;;;6.97;4.78;;;;;;;12.54;71.45;102475.09;4967823;28;20026;-82
2022/07/17 03:14:43;;;;;;;6.97;4.90;;;;;;;12.48;71.76;102478.84;4967989;28;20030;-83
2022/07/17 03:17:09;;;;;;;9.40;5.35;;;;;;;12.43;71.90;102484.34;4969107;28;20497;-83
2022/07/17 03:19:34;;;;;;;6.45;4.20;;;;;;;12.32;72.09;102482.94;4970017;28;20061;-83
2022/07/17 03:21:59;;;;;;;9.63;4.63;;;;;;;12.27;72.41;102480.41;4967656;28;20035;-82
2022/07/17 03:24:25;;;;;;;7.18;4.45;;;;;;;12.26;72.87;102496.50;4967655;28;20038;-83
2022/07/17 03:26:51;;;;;;;7.60;4.53;;;;;;;12.24;72.46;102493.84;4960366;28;20090;-83
2022/07/17 03:29:19;;;;;;;8.57;4.32;;;;;;;12.19;72.49;102485.13;4954391;28;20034;-82
2022/07/17 03:31:46;;;;;;;4.72;4.20;;;;;;;12.17;72.28;102493.19;4965142;28;20035;-83
2022/07/17 03:34:12;;;;;;;5.85;4.70;;;;;;;12.11;72.42;102488.03;4970362;28;20610;-83
2022/07/17 03:36:37;;;;;;;6.75;4.57;;;;;;;12.04;72.72;102494.50;4967058;28;20035;-82
2022/07/17 03:39:03;;;;;;;7.65;4.78;;;;;;;12.07;73.17;102491.72;4967100;28;20027;-83
2022/07/17 03:41:28;;;;;;;7.90;4.82;;;;;;;12.06;73.37;102475.75;4966525;28;20114;-82
2022/07/17 03:43:54;;;;;;;9.93;4.80;;;;;;;12.03;73.19;102482.06;4968984;28;20071;-83
2022/07/17 03:46:19;;;;;;;7.97;4.60;;;;;;;12.02;72.98;102476.78;4967263;28;20113;-83
2022/07/17 03:48:44;;;;;;;7.95;4.72;;;;;;;11.96;73.32;102485.84;4966871;28;20388;-82
2022/07/17 03:51:10;;;;;;;7.63;5.05;;;;;;;11.98;73.84;102485.78;4966144;28;20027;-82
2022/07/17 03:53:35;;;;;;;9.10;4.80;;;;;;;11.97;73.09;102490.25;4966774;28;20057;-82
2022/07/17 03:56:00;;;;;;;9.40;4.93;;;;;;;11.96;74.04;102485.84;4967290;28;20503;-83
2022/07/17 03:58:26;;;;;;;8.63;5.25;;;;;;;11.94;74.06;102483.22;4966310;28;20039;-82
2022/07/17 04:00:51;;;;;;;7.25;4.60;;;;;;;11.92;74.08;102481.53;4969176;28;20030;-82
2022/07/17 04:03:17;;;;;;;7.90;4.80;;;;;;;11.94;74.08;102485.88;4967963;28;20377;-83
2022/07/17 04:05:42;;;;;;;7.25;5.20;;;;;;;11.91;74.20;102483.34;4965988;28;20109;-82
2022/07/17 04:08:07;;;;;;;6.68;5.00;;;;;;;11.96;73.84;102486.72;4969987;28;20049;-82
2022/07/17 04:10:33;;;;;;;8.55;4.75;;;;;;;11.91;73.78;102485.09;4968300;28;20455;-82
2022/07/17 04:12:58;;;;;;;8.98;4.47;;;;;;;11.88;73.99;102487.88;4967021;28;20086;-82
2022/07/17 04:18:08;;;;;;;8.43;5.43;;;;;;;11.87;74.45;102494.13;4966298;28;20050;-83
2022/07/17 04:20:33;;;;;;;8.88;5.57;;;;;;;11.86;74.67;102497.72;4966753;28;20563;-82
2022/07/17 04:22:59;;;;;;;8.55;5.18;;;;;;;11.86;75.09;102506.59;4967772;28;20261;-82
2022/07/17 04:25:24;;;;;;;10.13;5.50;;;;;;;11.86;75.33;102508.38;4972226;28;20384;-82
2022/07/17 04:27:50;;;;;;;7.13;5.15;;;;;;;11.84;75.51;102502.22;4977868;28;20226;-83
2022/07/17 04:30:15;;;;;;;13.02;5.43;;;;;;;11.88;75.44;102509.22;4981123;28;20030;-83
2022/07/17 04:32:40;;;;;;;7.90;5.35;;;;;;;11.86;75.50;102505.72;4973134;28;20031;-83
2022/07/17 04:35:06;;;;;;;8.50;5.25;;;;;;;11.86;75.58;102506.59;4972097;28;20054;-83
2022/07/17 04:37:31;;;;;;;9.60;5.25;;;;;;;11.87;75.67;102513.69;4967584;28;20366;-83
2022/07/17 04:39:56;;;;;;;10.48;5.47;;;;;;;11.90;75.69;102510.91;4970708;28;20037;-82
2022/07/17 04:42:22;;;;;;;8.57;5.90;;;;;;;11.90;75.60;102499.38;4961857;28;20496;-82
2022/07/17 04:44:48;;;;;;;7.68;5.20;;;;;;;12.01;75.48;102507.94;4971445;28;20031;-82
2022/07/17 04:47:13;;;;;;;11.70;5.65;;;;;;;12.10;75.30;102504.09;4969261;28;20034;-82
2022/07/17 04:49:38;;;;;;;8.75;5.80;;;;;;;12.09;75.18;102508.56;4967074;28;20669;-83
2022/07/17 04:52:04;;;;;;;7.50;5.32;;;;;;;12.14;75.38;102495.94;4965853;28;20058;-82
2022/07/17 04:54:29;;;;;;;9.05;5.63;;;;;;;12.15;75.14;102502.16;4967924;28;20055;-82
2022/07/17 04:56:55;;;;;;;9.27;5.78;;;;;;;12.21;75.04;102502.00;4964284;28;20046;-83
2022/07/17 04:59:20;;;;;;;11.77;5.68;;;;;;;12.28;75.07;102511.53;4966166;28;20128;-82
2022/07/17 05:01:46;;;;;;;9.43;5.60;;;;;;;12.31;74.82;102511.44;4965801;28;20051;-82
2022/07/17 05:04:12;;;;;;;9.75;6.00;;;;;;;12.41;75.01;102515.56;4960183;28;20544;-82
2022/07/17 05:06:37;;;;;;;10.38;5.72;;;;;;;12.50;74.77;102514.41;4964834;28;20102;-82
2022/07/17 05:09:02;;;;;;;7.25;5.68;;;;;;;12.61;74.26;102527.41;4965175;28;20022;-82
2022/07/17 05:11:28;;;;;;;8.80;5.20;;;;;;;12.63;73.92;102530.91;4965927;28;20114;-82
2022/07/17 05:13:53;;;;;;;10.35;5.82;;;;;;;12.68;73.82;102537.84;4966981;28;20023;-82
2022/07/17 05:16:18;;;;;;;8.10;5.18;;;;;;;12.73;73.62;102532.34;4965407;28;20023;-82
2022/07/17 05:18:44;;;;;;;7.97;5.35;;;;;;;12.75;73.60;102538.53;4967264;28;20385;-82
2022/07/17 05:21:09;;;;;;;9.38;5.82;;;;;;;12.80;73.17;102539.25;4966503;28;20034;-82
2022/07/17 05:23:34;;;;;;;11.40;6.10;;;;;;;12.88;73.25;102522.97;4961389;28;20030;-82
2022/07/17 05:25:59;;;;;;;10.02;5.40;;;;;;;13.00;72.83;102527.00;4964292;28;20026;-82
2022/07/17 05:28:25;;;;;;;8.52;5.47;;;;;;;13.04;73.00;102525.97;4969851;28;20050;-82
2022/07/17 05:30:50;;;;;;;10.85;5.82;;;;;;;13.12;72.82;102526.56;4969292;28;20038;-82
2022/07/17 05:33:15;;;;;;;7.93;6.05;;;;;;;13.19;72.37;102509.41;4971587;28;20212;-82
2022/07/17 05:35:41;;;;;;;10.07;6.13;;;;;;;13.33;72.26;102516.94;4965053;28;20382;-81
2022/07/17 05:38:06;;;;;;;12.52;5.95;;;;;;;13.45;72.13;102516.50;4971949;28;20031;-81
2022/07/17 05:40:32;;;;;;;10.52;5.60;;;;;;;13.50;72.02;102522.56;4966984;28;20023;-82
2022/07/17 05:42:58;;;;;;;8.57;5.13;;;;;;;13.61;71.30;102517.69;4968973;28;20038;-82
2022/07/17 05:45:23;;;;;;;9.68;5.53;;;;;;;13.79;71.74;102521.47;4969364;28;20354;-83
2022/07/17 05:47:48;;;;;;;6.68;5.07;;;;;;;13.93;70.66;102518.31;4970194;28;20031;-82
2022/07/17 05:50:14;;;;;;;9.55;5.43;;;;;;;14.03;69.89;102525.03;4970077;28;20059;-82
2022/07/17 05:52:39;;;;;;;9.38;5.57;;;;;;;14.18;70.27;102519.09;4968946;28;20063;-83
2022/07/17 05:55:05;;;;;;;6.82;5.05;;;;;;;14.26;69.06;102509.91;4986167;28;20106;-83
2022/07/17 05:57:30;;;;;;;11.02;5.50;;;;;;;14.27;68.29;102504.47;4967643;28;20031;-83
2022/07/17 05:59:55;;;;;;;9.57;4.90;;;;;;;14.45;68.33;102506.38;4968108;28;20329;-82
2022/07/17 06:02:20;;;;;;;9.50;4.72;;;;;;;14.60;67.50;102504.06;4982755;28;20073;-83
2022/07/17 06:04:46;;;;;;;9.27;4.93;;;;;;;14.72;66.75;102510.72;4970102;28;20042;-83
2022/07/17 06:07:11;;;;;;;8.32;4.95;;;;;;;14.92;66.26;102511.63;4969749;28;20030;-83
2022/07/17 06:09:37;;;;;;;10.63;5.03;;;;;;;15.13;65.77;102504.47;4968075;28;20437;-83
2022/07/17 06:12:02;;;;;;;8.73;4.68;;;;;;;15.30;64.40;102514.47;4959958;28;20035;-82
2022/07/17 06:14:27;;;;;;;7.72;4.63;;;;;;;15.44;64.82;102509.34;4969534;28;20027;-83
2022/07/17 06:16:53;;;;;;;7.47;4.70;;;;;;;15.65;63.71;102498.63;4967048;28;20037;-83
2022/07/17 06:19:18;;;;;;;8.52;4.55;;;;;;;15.80;63.08;102497.91;4969956;28;20031;-83
2022/07/17 06:21:43;;;;;;;10.18;4.15;;;;;;;16.02;61.66;102500.47;4967564;28;20122;-82
2022/07/17 06:24:09;;;;;;;8.02;4.22;;;;;;;16.19;61.79;102499.66;4969366;28;20023;-83
2022/07/17 06:26:34;;;;;;;7.40;4.25;;;;;;;16.32;61.26;102492.72;4965245;28;20073;-83
2022/07/17 06:28:59;;;;;;;8.65;4.68;;;;;;;16.35;61.37;102495.28;4970190;28;20425;-82
2022/07/17 06:31:25;;;;;;;9.77;4.68;;;;;;;16.61;60.98;102506.56;4966083;28;20035;-83
2022/07/17 06:33:50;;;;;;;9.30;4.80;;;;;;;16.75;59.97;102506.75;4966022;28;21217;-82
2022/07/17 06:36:15;;;;;;;9.18;5.13;;;;;;;16.84;59.73;102506.28;4964910;28;20031;-83
2022/07/17 06:38:41;;;;;;;8.25;4.93;;;;;;;17.00;60.13;102501.00;4983689;28;20026;-83
2022/07/17 06:41:06;;;;;;;9.40;4.85;;;;;;;17.23;59.95;102507.88;4963110;28;20038;-83
2022/07/17 06:43:31;;;;;;;8.45;4.68;;;;;;;17.43;57.49;102517.56;4964268;28;20027;-83
2022/07/17 06:45:57;;;;;;;8.02;4.82;;;;;;;17.62;58.36;102522.84;4963978;28;20320;-82
2022/07/17 06:48:22;;;;;;;7.50;4.45;;;;;;;17.81;57.69;102520.09;4970233;28;20031;-82
2022/07/17 06:50:48;;;;;;;6.57;5.72;;;;;;;18.05;57.03;102520.53;4969133;28;20034;-83
2022/07/17 06:53:13;;;;;;;10.13;4.60;;;;;;;18.32;55.92;102527.06;4966611;28;20046;-83
2022/07/17 06:55:39;;;;;;;5.63;4.88;;;;;;;18.53;54.03;102534.91;4970666;28;20031;-83
2022/07/17 06:58:06;;;;;;;7.15;4.47;;;;;;;18.57;54.46;102539.16;4984357;28;20030;-82
2022/07/17 07:00:31;;;;;;;9.32;4.55;;;;;;;18.71;55.08;102531.16;4965838;28;20085;-83
2022/07/17 07:02:57;;;;;;;9.75;5.00;;;;;;;18.62;54.07;102532.53;4967488;28;20439;-83
2022/07/17 07:05:22;;;;;;;6.43;4.47;;;;;;;18.67;54.36;102543.03;4968740;28;20065;-82
2022/07/17 07:07:48;;;;;;;10.63;4.60;;;;;;;18.87;54.57;102541.91;4968956;28;20019;-82
2022/07/17 07:10:13;;;;;;;8.73;4.88;;;;;;;19.02;53.79;102541.00;4968349;28;20174;-84
2022/07/17 07:12:39;;;;;;;10.02;5.00;;;;;;;19.23;52.96;102540.66;4966104;28;20084;-83
2022/07/17 07:15:05;;;;;;;6.28;4.55;;;;;;;19.29;51.46;102551.97;4967776;28;20383;-84
2022/07/17 07:17:31;;;;;;;8.30;4.28;;;;;;;19.50;52.08;102546.22;4966253;28;20035;-82
2022/07/17 07:19:58;;;;;;;8.57;4.60;;;;;;;19.68;50.27;102552.34;4968581;28;20050;-84
2022/07/17 07:22:23;;;;;;;6.90;4.60;;;;;;;19.89;50.65;102551.84;4964306;28;21038;-83
2022/07/17 07:24:48;;;;;;;9.02;4.22;;;;;;;20.07;49.14;102555.25;4968020;28;20029;-82
2022/07/17 07:27:14;;;;;;;7.68;3.80;;;;;;;20.30;48.57;102561.84;4966515;28;20035;-82
2022/07/17 07:29:39;;;;;;;6.70;3.65;;;;;;;20.60;48.38;102556.31;4969146;28;20031;-82
2022/07/17 07:32:04;;;;;;;8.05;3.80;;;;;;;20.71;48.09;102557.44;4966451;28;20109;-81
2022/07/17 07:34:29;;;;;;;8.45;3.90;;;;;;;20.83;47.18;102552.06;4969047;28;20022;-83
2022/07/17 07:36:55;;;;;;;7.25;3.45;;;;;;;20.91;46.90;102553.41;4968008;28;20130;-81
2022/07/17 07:39:20;;;;;;;6.68;2.83;;;;;;;21.37;45.96;102543.88;4967963;28;20464;-83
2022/07/17 07:41:46;;;;;;;5.82;1.95;;;;;;;22.00;43.14;102536.72;4966929;28;20031;-81
2022/07/17 07:44:12;;;;;;;8.45;2.08;;;;;;;22.44;42.45;102548.00;4967399;28;20027;-84
2022/07/17 07:46:37;;;;;;;5.95;2.47;;;;;;;22.95;41.11;102542.38;4975546;28;20171;-85
2022/07/17 07:49:03;;;;;;;5.50;2.47;;;;;;;23.50;41.80;102546.25;4974419;28;20027;-84
2022/07/17 07:51:29;;;;;;;6.78;2.13;;;;;;;23.81;38.69;102542.84;4970657;28;20041;-84
2022/07/17 07:53:54;;;;;;;5.40;2.17;;;;;;;24.19;37.92;102546.16;4967374;28;20049;-83
2022/07/17 07:56:20;;;;;;;5.45;2.30;;;;;;;24.45;37.30;102553.06;4973981;28;20031;-83
2022/07/17 07:58:45;;;;;;;4.50;2.08;;;;;;;24.90;36.36;102549.34;4967479;28;20035;-84
2022/07/17 08:01:10;;;;;;;5.63;2.10;;;;;;;25.31;37.43;102554.00;4967522;28;20027;-84
2022/07/17 08:03:35;;;;;;;5.85;2.40;;;;;;;25.60;35.10;102554.19;4962306;28;20050;-85
2022/07/17 08:06:01;;;;;;;5.53;2.00;;;;;;;25.79;35.82;102564.34;4968085;28;20035;-84
2022/07/17 08:08:26;;;;;;;5.80;2.30;;;;;;;26.01;33.89;102552.41;4962473;28;20023;-84
2022/07/17 08:10:51;;;;;;;3.55;2.00;;;;;;;26.25;34.12;102549.28;4963348;28;20047;-84
2022/07/17 08:13:17;;;;;;;4.80;2.20;;;;;;;26.62;33.08;102546.81;4968750;28;20367;-85
2022/07/17 08:15:42;;;;;;;7.30;2.20;;;;;;;26.94;33.98;102545.69;4956040;28;20038;-84
2022/07/17 08:18:07;;;;;;;6.47;2.08;;;;;;;27.27;32.46;102558.94;4950522;28;20533;-85
2022/07/17 08:20:33;;;;;;;4.75;1.90;;;;;;;27.15;32.32;102557.38;4952883;28;20062;-84
2022/07/17 08:22:59;;;;;;;3.85;1.90;;;;;;;26.86;32.36;102553.75;4967786;28;20472;-84
2022/07/17 08:25:24;;;;;;;5.18;2.13;;;;;;;26.68;33.20;102565.38;4968190;28;20031;-85
2022/07/17 08:27:49;;;;;;;5.47;2.35;;;;;;;27.27;32.54;102567.13;4960712;28;20023;-84
2022/07/17 08:30:15;;;;;;;4.28;2.10;;;;;;;27.58;31.35;102557.84;4964113;28;20054;-82
2022/07/17 08:32:41;;;;;;;5.03;2.50;;;;;;;28.33;30.27;102559.56;4967652;28;20057;-83
2022/07/17 08:35:07;;;;;;;5.45;1.70;;;;;;;28.96;29.39;102564.19;4964044;28;20492;-83
2022/07/17 08:37:50;;;;;;;4.78;1.88;;;;;;;29.29;30.16;102563.50;4962041;28;20489;-83
2022/07/17 08:40:25;;;;;;;5.10;1.80;;;;;;;29.81;29.70;102565.44;4966190;28;20396;-82
2022/07/17 08:42:51;;;;;;;4.18;2.17;;;;;;;30.09;27.20;102563.31;4962150;28;20062;-82
2022/07/17 08:45:17;;;;;;;3.15;2.00;;;;;;;30.81;27.53;102547.28;4966219;28;20095;-82
2022/07/17 08:47:42;;;;;;;4.90;1.80;;;;;;;30.86;26.51;102553.13;4964087;28;20108;-82
2022/07/17 08:50:12;;;;;;;5.57;2.67;;;;;;;30.91;26.64;102558.94;4965008;28;20034;-82
2022/07/17 08:52:39;;;;;;;5.30;2.65;;;;;;;30.62;26.44;102562.13;4967768;28;20070;-82
2022/07/17 08:55:08;;;;;;;4.25;2.30;;;;;;;31.20;26.22;102555.69;4966658;28;20094;-81
2022/07/17 08:57:38;;;;;;;5.13;1.83;;;;;;;31.39;25.38;102557.22;4967291;28;20041;-83
2022/07/17 09:00:03;;;;;;;2.95;1.88;;;;;;;30.92;25.72;102557.06;4966603;28;20421;-82
2022/07/17 09:02:29;;;;;;;6.03;2.15;;;;;;;30.85;25.59;102550.50;4966085;28;20086;-83
2022/07/17 09:04:54;;;;;;;4.55;1.70;;;;;;;31.06;24.30;102561.00;4971316;28;20031;-83
2022/07/17 09:07:19;;;;;;;4.25;1.63;;;;;;;31.67;24.36;102552.19;4970775;28;20031;-83
2022/07/17 09:09:52;;;;;;;2.40;1.52;;;;;;;32.11;24.24;102560.00;4969016;28;20381;-82
2022/07/17 09:12:24;;;;;;;5.93;1.90;;;;;;;32.08;22.92;102563.09;4972001;28;20113;-82
2022/07/17 09:14:49;;;;;;;3.05;1.58;;;;;;;31.71;22.38;102553.56;4969406;28;20030;-82
2022/07/17 09:17:14;;;;;;;5.00;2.00;;;;;;;31.50;23.51;102567.03;4966694;28;20027;-82
2022/07/17 09:19:42;;;;;;;3.28;1.60;;;;;;;31.18;23.50;102563.22;4970979;28;20543;-81
2022/07/17 09:22:12;;;;;;;6.25;1.73;;;;;;;31.60;23.12;102553.06;4970896;28;20224;-83
2022/07/17 09:24:50;;;;;;;2.72;1.35;;;;;;;31.84;21.56;102554.94;4962625;28;20552;-83
2022/07/17 09:27:24;;;;;;;4.88;1.60;;;;;;;32.34;21.67;102551.78;4970720;28;20502;-84
2022/07/17 09:29:59;;;;;;;4.70;1.58;;;;;;;33.28;21.51;102548.91;4969578;28;20038;-83
2022/07/17 09:32:26;;;;;;;6.82;2.03;;;;;;;33.80;21.01;102556.31;4972331;28;20401;-84
2022/07/17 09:34:54;;;;;;;3.85;2.03;;;;;;;34.09;21.50;102552.69;4973627;28;20033;-86
2022/07/17 09:37:23;;;;;;;6.25;2.15;;;;;;;34.43;21.65;102555.66;4971008;28;20031;-84
2022/07/17 09:39:49;;;;;;;5.22;2.00;;;;;;;34.72;20.46;102547.50;4970978;28;20169;-84
2022/07/17 09:42:24;;;;;;;4.63;2.15;;;;;;;34.77;22.23;102551.38;4970225;28;20117;-85
2022/07/17 09:45:07;;;;;;;7.07;2.33;;;;;;;34.97;21.22;102557.09;4973212;28;20034;-85
2022/07/17 09:47:36;;;;;;;3.90;1.70;;;;;;;35.32;19.04;102559.97;4970760;28;20038;-82
2022/07/17 09:50:04;;;;;;;4.80;1.90;;;;;;;35.09;19.26;102550.00;4969253;28;20473;-83
2022/07/17 09:52:32;;;;;;;7.65;2.22;;;;;;;35.11;19.56;102549.81;4971397;28;20341;-82
2022/07/17 09:54:59;;;;;;;6.72;2.42;;;;;;;34.97;20.23;102554.34;4968783;28;20507;-83
2022/07/17 09:57:31;;;;;;;5.95;2.25;;;;;;;35.30;21.18;102551.88;4969250;28;20070;-82
2022/07/17 10:00:03;;;;;;;5.13;1.90;;;;;;;36.16;19.39;102558.00;4967526;28;20071;-83
2022/07/17 10:02:29;;;;;;;4.40;1.83;;;;;;;36.27;17.71;102559.31;4969941;28;20047;-83
2022/07/17 10:04:54;;;;;;;2.72;1.70;;;;;;;36.12;17.81;102551.16;4984045;28;20023;-85
2022/07/17 10:07:20;;;;;;;6.18;2.08;;;;;;;35.72;18.00;102554.75;4970680;28;20030;-83
2022/07/17 10:09:46;;;;;;;4.65;2.13;;;;;;;35.25;18.62;102556.31;4969889;28;20022;-83
2022/07/17 10:12:13;;;;;;;7.30;2.30;;;;;;;35.88;17.52;102559.97;4971762;28;20081;-83
2022/07/17 10:14:41;;;;;;;2.25;1.60;;;;;;;36.49;17.21;102556.41;4964605;28;20388;-83
2022/07/17 10:17:11;;;;;;;3.72;1.88;;;;;;;36.61;16.76;102555.59;4970676;28;20018;-83
2022/07/17 10:19:52;;;;;;;3.78;1.48;;;;;;;37.53;15.68;102562.28;4983948;28;20038;-84
2022/07/17 10:22:18;;;;;;;3.75;1.90;;;;;;;37.79;16.03;102557.75;4972496;28;20030;-84
2022/07/17 10:24:49;;;;;;;4.07;1.75;;;;;;;38.16;16.32;102555.28;4970991;28;20037;-82
2022/07/17 10:27:29;;;;;;;3.53;1.60;;;;;;;37.99;16.59;102550.22;4969534;28;20031;-83
2022/07/17 10:30:01;;;;;;;4.32;1.73;;;;;;;38.33;16.79;102562.91;4969534;28;20401;-84
2022/07/17 10:32:27;;;;;;;3.22;1.67;;;;;;;38.00;15.87;102562.19;4958199;28;20041;-84
2022/07/17 10:34:59;;;;;;;4.57;1.77;;;;;;;38.22;16.72;102560.81;4969903;28;20459;-83
2022/07/17 10:37:33;;;;;;;3.30;1.38;;;;;;;38.93;15.75;102551.44;4972159;28;20097;-83
2022/07/17 10:40:06;;;;;;;4.47;1.70;;;;;;;38.59;15.35;102559.16;4969883;28;20034;-84
2022/07/17 10:43:01;;;;;;;5.30;2.03;;;;;;;38.76;16.21;102559.47;4972080;28;20031;-85
2022/07/17 10:45:33;;;;;;;7.85;4.68;;;;;;;38.57;14.80;102561.28;4969900;28;20483;-85
2022/07/17 10:47:59;;;;;;;;;;;;;;;40.59;15.28;102552.41;4972097;28;20089;-84
2022/07/17 10:50:29;;;;;;;4.32;1.70;;;;;;;40.12;14.65;102545.78;4968279;28;19945;-84
2022/07/17 10:53:04;;;;;;;2.78;1.60;;;;;;;40.30;14.53;102554.09;4987092;28;20055;-84
2022/07/17 10:55:30;;;;;;;5.53;2.08;;;;;;;39.83;14.63;102545.44;4970779;28;20035;-86
2022/07/17 10:57:56;;;;;;;3.58;1.60;;;;;;;39.57;14.31;102543.81;4973007;28;20042;-85
2022/07/17 11:00:22;;;;;;;3.75;1.27;;;;;;;39.74;15.14;102541.28;4976404;28;20035;-85
2022/07/17 11:02:47;;;;;;;4.28;1.90;;;;;;;39.83;14.78;102539.88;4972301;28;20116;-85
2022/07/17 11:05:14;;;;;;;4.32;1.92;;;;;;;39.79;13.70;102552.56;4976276;28;20121;-88
2022/07/17 11:07:58;;;;;;;4.30;1.70;;;;;;;40.12;14.82;102551.34;4978732;28;20029;-87
2022/07/17 11:10:25;;;;;;;14.68;2.55;;;;;;;39.90;14.46;102551.81;4979342;28;20038;-84
2022/07/17 11:12:55;;;;;;;4.72;1.98;;;;;;;39.14;14.46;102552.13;4974686;28;20046;-88
2022/07/17 11:15:21;;;;;;;4.57;1.70;;;;;;;39.42;14.95;102543.31;4977025;28;20027;-84
2022/07/17 11:17:48;;;;;;;6.97;1.98;;;;;;;39.13;14.89;102544.84;4975909;28;20054;-86
2022/07/17 11:20:16;;;;;;;5.03;2.10;;;;;;;38.35;15.07;102551.59;4971935;28;20038;-85
2022/07/17 11:22:42;;;;;;;4.35;1.70;;;;;;;38.70;15.29;102548.38;4973873;28;20192;-84
2022/07/17 11:25:08;;;;;;;3.70;1.88;;;;;;;38.44;15.44;102547.47;4971458;28;20078;-83